Beverly, West Virginia
Current Conditions -  °F | °C
As of 12:51 PM on Monday 24 Nov 2014 (Local Time) from KEKN Reporting Station
Broken Clouds Broken Clouds  
Wind Chill: 68°   Ceiling: 7000
Heat Index: 68°   Visibility: 10mi
Dew Point: 42°   Wind: 21mph
Humidity: 39%   Direction: 210°SSW
Pressure: 29.56"   Gusts: 31mph
Location:  38.84°N, 79.88°W
Report Text: KEKN 241751Z AUTO 21018G27KT 10SM BKN070 BKN085 20/06 A2956 RMK AO2 PK WND 22035/1703 SLP003 T02000056 10206 20139 56013 TSNO
Loading
Personal Weather Stations






























Interactive Weather Map New forecast layout! Learn more

10-Day Weather Forecast

Advertisements
Track Severe Weather on mobile